Terminal Aerodrome Forecast
Issued by NWS Cheyenne, WY

Home | Current Version | Previous Version | Text Only | Print | Product List | Glossary On
Versions: 1 2 3 4 5 6 7 8 9 10 11 12 13 14
000
FTUS45 KCYS 301120
TAFCYS
TAF
KCYS 301120Z 3012/3112 34011KT P6SM SCT070
     FM302300 05008KT P6SM SCT070
     FM310300 16006KT P6SM SKC
     FM310800 17008KT 5SM BR FEW010=

USA.gov is the U.S. government's official web portal to all federal, state and local government web resources and services.